sensor_id;sensor_type;location;lat;lon;timestamp;P1;durP1;ratioP1;P2;durP2;ratioP2
5965;SDS011;3009;43.224;27.976;2023-01-16T00:01:27;3.17;;;2.80;;
5965;SDS011;3009;43.224;27.976;2023-01-16T00:03:56;3.20;;;2.90;;
5965;SDS011;3009;43.224;27.976;2023-01-16T00:06:24;2.77;;;2.57;;
5965;SDS011;3009;43.224;27.976;2023-01-16T00:08:54;4.50;;;2.90;;
5965;SDS011;3009;43.224;27.976;2023-01-16T00:11:22;4.13;;;3.07;;
5965;SDS011;3009;43.224;27.976;2023-01-16T00:13:50;5.90;;;3.07;;
5965;SDS011;3009;43.224;27.976;2023-01-16T00:16:19;3.30;;;3.00;;
5965;SDS011;3009;43.224;27.976;2023-01-16T00:18:47;3.40;;;2.87;;
5965;SDS011;3009;43.224;27.976;2023-01-16T00:21:16;6.70;;;3.10;;
5965;SDS011;3009;43.224;27.976;2023-01-16T00:23:46;3.30;;;3.00;;
5965;SDS011;3009;43.224;27.976;2023-01-16T00:26:16;3.33;;;3.03;;
5965;SDS011;3009;43.224;27.976;2023-01-16T00:28:44;3.10;;;2.60;;
5965;SDS011;3009;43.224;27.976;2023-01-16T00:31:12;14.03;;;3.10;;
5965;SDS011;3009;43.224;27.976;2023-01-16T00:33:40;3.60;;;3.13;;
5965;SDS011;3009;43.224;27.976;2023-01-16T00:36:09;6.37;;;2.70;;
5965;SDS011;3009;43.224;27.976;2023-01-16T00:38:37;3.67;;;3.33;;
5965;SDS011;3009;43.224;27.976;2023-01-16T00:41:06;4.93;;;3.00;;
5965;SDS011;3009;43.224;27.976;2023-01-16T00:43:36;2.70;;;2.60;;
5965;SDS011;3009;43.224;27.976;2023-01-16T00:46:04;4.13;;;3.40;;
5965;SDS011;3009;43.224;27.976;2023-01-16T00:48:32;3.20;;;2.90;;
5965;SDS011;3009;43.224;27.976;2023-01-16T00:51:00;3.60;;;3.30;;
5965;SDS011;3009;43.224;27.976;2023-01-16T00:53:29;3.30;;;2.60;;
5965;SDS011;3009;43.224;27.976;2023-01-16T00:55:57;2.97;;;2.77;;
5965;SDS011;3009;43.224;27.976;2023-01-16T00:58:25;3.17;;;2.87;;
5965;SDS011;3009;43.224;27.976;2023-01-16T01:00:55;4.73;;;3.40;;
5965;SDS011;3009;43.224;27.976;2023-01-16T01:03:23;3.80;;;3.50;;
5965;SDS011;3009;43.224;27.976;2023-01-16T01:05:51;5.70;;;4.10;;
5965;SDS011;3009;43.224;27.976;2023-01-16T01:08:20;6.13;;;3.33;;
5965;SDS011;3009;43.224;27.976;2023-01-16T01:10:48;3.57;;;3.13;;
5965;SDS011;3009;43.224;27.976;2023-01-16T01:13:16;4.07;;;3.47;;
5965;SDS011;3009;43.224;27.976;2023-01-16T01:15:44;6.80;;;3.10;;
5965;SDS011;3009;43.224;27.976;2023-01-16T01:18:14;4.17;;;2.97;;
5965;SDS011;3009;43.224;27.976;2023-01-16T01:20:42;5.03;;;3.33;;
5965;SDS011;3009;43.224;27.976;2023-01-16T01:23:10;7.13;;;3.50;;
5965;SDS011;3009;43.224;27.976;2023-01-16T01:25:38;3.87;;;3.47;;
5965;SDS011;3009;43.224;27.976;2023-01-16T01:28:06;3.17;;;2.87;;
5965;SDS011;3009;43.224;27.976;2023-01-16T01:30:35;6.67;;;3.63;;
5965;SDS011;3009;43.224;27.976;2023-01-16T01:33:03;5.07;;;3.73;;
5965;SDS011;3009;43.224;27.976;2023-01-16T01:35:32;4.30;;;3.00;;
5965;SDS011;3009;43.224;27.976;2023-01-16T01:38:00;4.23;;;3.57;;
5965;SDS011;3009;43.224;27.976;2023-01-16T01:40:29;5.57;;;3.90;;
5965;SDS011;3009;43.224;27.976;2023-01-16T01:42:57;3.40;;;3.10;;
5965;SDS011;3009;43.224;27.976;2023-01-16T01:45:26;3.60;;;3.20;;
5965;SDS011;3009;43.224;27.976;2023-01-16T01:47:56;3.37;;;3.17;;
5965;SDS011;3009;43.224;27.976;2023-01-16T01:50:36;4.43;;;2.90;;
5965;SDS011;3009;43.224;27.976;2023-01-16T01:53:09;5.47;;;3.90;;
5965;SDS011;3009;43.224;27.976;2023-01-16T01:55:42;4.30;;;3.43;;
5965;SDS011;3009;43.224;27.976;2023-01-16T01:58:14;4.27;;;3.30;;
5965;SDS011;3009;43.224;27.976;2023-01-16T02:00:48;4.00;;;3.60;;
5965;SDS011;3009;43.224;27.976;2023-01-16T02:03:21;8.33;;;3.30;;
5965;SDS011;3009;43.224;27.976;2023-01-16T02:05:54;7.10;;;3.80;;
5965;SDS011;3009;43.224;27.976;2023-01-16T02:08:26;3.90;;;3.17;;
5965;SDS011;3009;43.224;27.976;2023-01-16T02:10:59;3.40;;;3.10;;
5965;SDS011;3009;43.224;27.976;2023-01-16T02:13:33;5.23;;;3.87;;
5965;SDS011;3009;43.224;27.976;2023-01-16T02:16:04;4.00;;;3.60;;
5965;SDS011;3009;43.224;27.976;2023-01-16T02:18:52;7.63;;;4.20;;
5965;SDS011;3009;43.224;27.976;2023-01-16T02:21:45;4.80;;;4.10;;
5965;SDS011;3009;43.224;27.976;2023-01-16T02:24:42;4.43;;;3.80;;
5965;SDS011;3009;43.224;27.976;2023-01-16T02:27:42;4.83;;;3.63;;
5965;SDS011;3009;43.224;27.976;2023-01-16T02:33:32;5.73;;;3.77;;
5965;SDS011;3009;43.224;27.976;2023-01-16T02:36:12;5.50;;;3.67;;
5965;SDS011;3009;43.224;27.976;2023-01-16T02:38:46;4.30;;;3.90;;
5965;SDS011;3009;43.224;27.976;2023-01-16T02:41:25;10.83;;;3.70;;
5965;SDS011;3009;43.224;27.976;2023-01-16T02:43:58;4.43;;;3.80;;
5965;SDS011;3009;43.224;27.976;2023-01-16T02:46:38;6.77;;;3.50;;
5965;SDS011;3009;43.224;27.976;2023-01-16T02:49:15;4.50;;;3.77;;
5965;SDS011;3009;43.224;27.976;2023-01-16T02:51:50;9.17;;;4.53;;
5965;SDS011;3009;43.224;27.976;2023-01-16T02:54:24;5.63;;;4.37;;
5965;SDS011;3009;43.224;27.976;2023-01-16T02:56:59;5.70;;;4.30;;
5965;SDS011;3009;43.224;27.976;2023-01-16T02:59:32;5.10;;;4.60;;
5965;SDS011;3009;43.224;27.976;2023-01-16T03:02:03;5.30;;;3.97;;
5965;SDS011;3009;43.224;27.976;2023-01-16T03:04:39;6.13;;;3.87;;
5965;SDS011;3009;43.224;27.976;2023-01-16T03:10:29;6.83;;;3.63;;
5965;SDS011;3009;43.224;27.976;2023-01-16T03:13:24;4.33;;;3.53;;
5965;SDS011;3009;43.224;27.976;2023-01-16T03:16:04;4.13;;;3.73;;
5965;SDS011;3009;43.224;27.976;2023-01-16T03:18:48;4.40;;;4.00;;
5965;SDS011;3009;43.224;27.976;2023-01-16T03:21:24;7.07;;;4.07;;
5965;SDS011;3009;43.224;27.976;2023-01-16T03:24:05;6.63;;;3.83;;
5965;SDS011;3009;43.224;27.976;2023-01-16T03:26:42;11.40;;;4.40;;
5965;SDS011;3009;43.224;27.976;2023-01-16T03:29:14;4.97;;;4.00;;
5965;SDS011;3009;43.224;27.976;2023-01-16T03:31:52;4.80;;;3.80;;
5965;SDS011;3009;43.224;27.976;2023-01-16T03:34:28;5.10;;;3.80;;
5965;SDS011;3009;43.224;27.976;2023-01-16T03:37:03;4.80;;;4.30;;
5965;SDS011;3009;43.224;27.976;2023-01-16T03:39:37;8.37;;;4.40;;
5965;SDS011;3009;43.224;27.976;2023-01-16T03:42:11;6.70;;;5.63;;
5965;SDS011;3009;43.224;27.976;2023-01-16T03:44:46;6.80;;;5.23;;
5965;SDS011;3009;43.224;27.976;2023-01-16T03:47:18;8.20;;;4.90;;
5965;SDS011;3009;43.224;27.976;2023-01-16T03:49:53;8.73;;;4.67;;
5965;SDS011;3009;43.224;27.976;2023-01-16T03:52:27;4.80;;;4.30;;
5965;SDS011;3009;43.224;27.976;2023-01-16T03:55:04;5.80;;;4.20;;
5965;SDS011;3009;43.224;27.976;2023-01-16T03:57:36;5.67;;;4.60;;
5965;SDS011;3009;43.224;27.976;2023-01-16T04:00:09;4.27;;;3.90;;
5965;SDS011;3009;43.224;27.976;2023-01-16T04:02:40;4.40;;;3.30;;
5965;SDS011;3009;43.224;27.976;2023-01-16T04:05:16;8.60;;;4.87;;
5965;SDS011;3009;43.224;27.976;2023-01-16T04:07:49;4.50;;;3.90;;
5965;SDS011;3009;43.224;27.976;2023-01-16T04:10:25;8.20;;;3.83;;
5965;SDS011;3009;43.224;27.976;2023-01-16T04:12:57;7.03;;;4.13;;
5965;SDS011;3009;43.224;27.976;2023-01-16T04:15:31;5.70;;;4.03;;
5965;SDS011;3009;43.224;27.976;2023-01-16T04:18:01;9.30;;;3.70;;
5965;SDS011;3009;43.224;27.976;2023-01-16T04:20:31;4.97;;;4.27;;
5965;SDS011;3009;43.224;27.976;2023-01-16T04:23:01;5.67;;;4.53;;
5965;SDS011;3009;43.224;27.976;2023-01-16T04:25:29;8.67;;;5.00;;
5965;SDS011;3009;43.224;27.976;2023-01-16T04:27:58;6.00;;;4.90;;
5965;SDS011;3009;43.224;27.976;2023-01-16T04:30:26;4.57;;;4.10;;
5965;SDS011;3009;43.224;27.976;2023-01-16T04:32:54;4.17;;;3.77;;
5965;SDS011;3009;43.224;27.976;2023-01-16T04:35:22;5.13;;;4.00;;
5965;SDS011;3009;43.224;27.976;2023-01-16T04:37:52;3.40;;;3.10;;
5965;SDS011;3009;43.224;27.976;2023-01-16T04:40:20;4.40;;;3.40;;
5965;SDS011;3009;43.224;27.976;2023-01-16T04:42:48;6.60;;;3.37;;
5965;SDS011;3009;43.224;27.976;2023-01-16T04:45:17;5.30;;;3.33;;
5965;SDS011;3009;43.224;27.976;2023-01-16T04:47:45;2.93;;;2.73;;
5965;SDS011;3009;43.224;27.976;2023-01-16T04:50:14;3.13;;;2.80;;
5965;SDS011;3009;43.224;27.976;2023-01-16T04:52:43;3.10;;;2.83;;
5965;SDS011;3009;43.224;27.976;2023-01-16T04:55:13;3.27;;;2.97;;
5965;SDS011;3009;43.224;27.976;2023-01-16T04:57:42;6.33;;;2.87;;
5965;SDS011;3009;43.224;27.976;2023-01-16T05:00:10;3.00;;;2.80;;
5965;SDS011;3009;43.224;27.976;2023-01-16T05:02:39;6.80;;;2.90;;
5965;SDS011;3009;43.224;27.976;2023-01-16T05:05:08;4.50;;;3.30;;
5965;SDS011;3009;43.224;27.976;2023-01-16T05:07:36;3.50;;;2.93;;
5965;SDS011;3009;43.224;27.976;2023-01-16T05:10:04;3.93;;;2.60;;
5965;SDS011;3009;43.224;27.976;2023-01-16T05:12:34;3.57;;;3.27;;
5965;SDS011;3009;43.224;27.976;2023-01-16T05:15:03;4.03;;;2.80;;
5965;SDS011;3009;43.224;27.976;2023-01-16T05:17:31;3.53;;;3.23;;
5965;SDS011;3009;43.224;27.976;2023-01-16T05:19:59;6.30;;;2.80;;
5965;SDS011;3009;43.224;27.976;2023-01-16T05:22:28;3.37;;;2.73;;
5965;SDS011;3009;43.224;27.976;2023-01-16T05:24:56;4.23;;;2.20;;
5965;SDS011;3009;43.224;27.976;2023-01-16T05:27:24;4.57;;;3.40;;
5965;SDS011;3009;43.224;27.976;2023-01-16T05:29:54;13.23;;;4.53;;
5965;SDS011;3009;43.224;27.976;2023-01-16T05:32:22;10.60;;;4.10;;
5965;SDS011;3009;43.224;27.976;2023-01-16T05:34:50;3.57;;;3.27;;
5965;SDS011;3009;43.224;27.976;2023-01-16T05:37:18;4.37;;;3.97;;
5965;SDS011;3009;43.224;27.976;2023-01-16T05:39:46;6.97;;;3.77;;
5965;SDS011;3009;43.224;27.976;2023-01-16T05:42:15;3.83;;;3.23;;
5965;SDS011;3009;43.224;27.976;2023-01-16T05:44:48;3.77;;;3.23;;
5965;SDS011;3009;43.224;27.976;2023-01-16T05:47:18;4.23;;;3.87;;
5965;SDS011;3009;43.224;27.976;2023-01-16T05:49:46;10.10;;;4.43;;
5965;SDS011;3009;43.224;27.976;2023-01-16T05:52:15;16.53;;;4.03;;
5965;SDS011;3009;43.224;27.976;2023-01-16T05:54:43;6.20;;;5.07;;
5965;SDS011;3009;43.224;27.976;2023-01-16T05:57:11;5.83;;;5.13;;
5965;SDS011;3009;43.224;27.976;2023-01-16T05:59:40;5.83;;;3.93;;
5965;SDS011;3009;43.224;27.976;2023-01-16T06:02:12;19.20;;;9.67;;
5965;SDS011;3009;43.224;27.976;2023-01-16T06:04:41;11.90;;;7.77;;
5965;SDS011;3009;43.224;27.976;2023-01-16T06:07:10;14.80;;;7.17;;
5965;SDS011;3009;43.224;27.976;2023-01-16T06:09:39;6.97;;;5.20;;
5965;SDS011;3009;43.224;27.976;2023-01-16T06:12:10;19.60;;;6.77;;
5965;SDS011;3009;43.224;27.976;2023-01-16T06:14:41;14.03;;;9.80;;
5965;SDS011;3009;43.224;27.976;2023-01-16T06:17:12;13.40;;;8.37;;
5965;SDS011;3009;43.224;27.976;2023-01-16T06:19:43;12.90;;;6.80;;
5965;SDS011;3009;43.224;27.976;2023-01-16T06:22:12;5.43;;;4.10;;
5965;SDS011;3009;43.224;27.976;2023-01-16T06:24:40;5.90;;;4.60;;
5965;SDS011;3009;43.224;27.976;2023-01-16T06:27:09;19.43;;;7.50;;
5965;SDS011;3009;43.224;27.976;2023-01-16T06:29:37;21.30;;;10.07;;
5965;SDS011;3009;43.224;27.976;2023-01-16T06:32:06;24.53;;;11.30;;
5965;SDS011;3009;43.224;27.976;2023-01-16T06:34:34;13.97;;;8.30;;
5965;SDS011;3009;43.224;27.976;2023-01-16T06:37:04;9.47;;;5.50;;
5965;SDS011;3009;43.224;27.976;2023-01-16T06:39:32;8.00;;;5.33;;
5965;SDS011;3009;43.224;27.976;2023-01-16T06:42:01;9.27;;;5.60;;
5965;SDS011;3009;43.224;27.976;2023-01-16T06:44:31;15.40;;;6.63;;
5965;SDS011;3009;43.224;27.976;2023-01-16T06:47:00;15.17;;;5.90;;
5965;SDS011;3009;43.224;27.976;2023-01-16T06:49:28;9.57;;;5.83;;
5965;SDS011;3009;43.224;27.976;2023-01-16T06:51:56;11.87;;;6.43;;
5965;SDS011;3009;43.224;27.976;2023-01-16T06:54:27;18.60;;;7.97;;
5965;SDS011;3009;43.224;27.976;2023-01-16T06:56:56;13.53;;;5.73;;
5965;SDS011;3009;43.224;27.976;2023-01-16T06:59:24;10.27;;;5.90;;
5965;SDS011;3009;43.224;27.976;2023-01-16T07:01:52;11.23;;;5.67;;
5965;SDS011;3009;43.224;27.976;2023-01-16T07:04:20;9.47;;;4.53;;
5965;SDS011;3009;43.224;27.976;2023-01-16T07:06:49;7.57;;;5.00;;
5965;SDS011;3009;43.224;27.976;2023-01-16T07:09:18;8.67;;;5.33;;
5965;SDS011;3009;43.224;27.976;2023-01-16T07:11:50;6.30;;;4.80;;
5965;SDS011;3009;43.224;27.976;2023-01-16T07:14:20;7.70;;;5.20;;
5965;SDS011;3009;43.224;27.976;2023-01-16T07:17:05;11.97;;;6.33;;
5965;SDS011;3009;43.224;27.976;2023-01-16T07:20:05;7.60;;;6.00;;
5965;SDS011;3009;43.224;27.976;2023-01-16T07:22:51;13.90;;;5.53;;
5965;SDS011;3009;43.224;27.976;2023-01-16T07:25:20;10.33;;;5.73;;
5965;SDS011;3009;43.224;27.976;2023-01-16T07:27:54;10.83;;;5.70;;
5965;SDS011;3009;43.224;27.976;2023-01-16T07:30:22;6.67;;;4.90;;
5965;SDS011;3009;43.224;27.976;2023-01-16T07:32:51;6.33;;;5.27;;
5965;SDS011;3009;43.224;27.976;2023-01-16T07:35:19;7.40;;;4.67;;
5965;SDS011;3009;43.224;27.976;2023-01-16T07:37:47;8.60;;;6.43;;
5965;SDS011;3009;43.224;27.976;2023-01-16T07:40:17;11.10;;;6.67;;
5965;SDS011;3009;43.224;27.976;2023-01-16T07:42:45;7.40;;;4.73;;
5965;SDS011;3009;43.224;27.976;2023-01-16T07:45:14;5.70;;;4.50;;
5965;SDS011;3009;43.224;27.976;2023-01-16T07:47:43;11.00;;;5.43;;
5965;SDS011;3009;43.224;27.976;2023-01-16T07:50:11;5.60;;;4.17;;
5965;SDS011;3009;43.224;27.976;2023-01-16T07:52:39;11.40;;;5.70;;
5965;SDS011;3009;43.224;27.976;2023-01-16T07:55:07;5.30;;;4.80;;
5965;SDS011;3009;43.224;27.976;2023-01-16T07:57:36;6.47;;;5.20;;
5965;SDS011;3009;43.224;27.976;2023-01-16T08:00:06;5.30;;;4.80;;
5965;SDS011;3009;43.224;27.976;2023-01-16T08:02:37;10.80;;;5.10;;
5965;SDS011;3009;43.224;27.976;2023-01-16T08:05:07;6.70;;;5.37;;
5965;SDS011;3009;43.224;27.976;2023-01-16T08:07:36;8.67;;;4.80;;
5965;SDS011;3009;43.224;27.976;2023-01-16T08:10:05;8.33;;;5.70;;
5965;SDS011;3009;43.224;27.976;2023-01-16T08:12:34;6.30;;;4.97;;
5965;SDS011;3009;43.224;27.976;2023-01-16T08:15:04;10.23;;;5.97;;
5965;SDS011;3009;43.224;27.976;2023-01-16T08:17:33;8.33;;;5.67;;
5965;SDS011;3009;43.224;27.976;2023-01-16T08:20:03;8.80;;;5.20;;
5965;SDS011;3009;43.224;27.976;2023-01-16T08:22:32;6.93;;;5.30;;
5965;SDS011;3009;43.224;27.976;2023-01-16T08:25:00;9.77;;;4.77;;
5965;SDS011;3009;43.224;27.976;2023-01-16T08:27:29;9.00;;;4.73;;
5965;SDS011;3009;43.224;27.976;2023-01-16T08:29:57;7.70;;;5.37;;
5965;SDS011;3009;43.224;27.976;2023-01-16T08:32:25;6.47;;;4.97;;
5965;SDS011;3009;43.224;27.976;2023-01-16T08:34:53;5.00;;;4.50;;
5965;SDS011;3009;43.224;27.976;2023-01-16T08:37:22;8.43;;;5.00;;
5965;SDS011;3009;43.224;27.976;2023-01-16T08:39:51;5.27;;;4.27;;
5965;SDS011;3009;43.224;27.976;2023-01-16T08:42:19;7.33;;;4.10;;
5965;SDS011;3009;43.224;27.976;2023-01-16T08:45:04;5.70;;;5.00;;
5965;SDS011;3009;43.224;27.976;2023-01-16T08:47:50;6.47;;;5.33;;
5965;SDS011;3009;43.224;27.976;2023-01-16T08:50:35;5.10;;;4.63;;
5965;SDS011;3009;43.224;27.976;2023-01-16T08:53:22;7.10;;;4.50;;
5965;SDS011;3009;43.224;27.976;2023-01-16T08:55:51;6.27;;;4.70;;
5965;SDS011;3009;43.224;27.976;2023-01-16T08:58:19;4.83;;;4.33;;
5965;SDS011;3009;43.224;27.976;2023-01-16T09:00:47;6.67;;;4.67;;
5965;SDS011;3009;43.224;27.976;2023-01-16T09:03:16;8.67;;;5.47;;
5965;SDS011;3009;43.224;27.976;2023-01-16T09:05:45;16.40;;;5.57;;
5965;SDS011;3009;43.224;27.976;2023-01-16T09:08:13;7.00;;;5.43;;
5965;SDS011;3009;43.224;27.976;2023-01-16T09:10:43;6.53;;;5.20;;
5965;SDS011;3009;43.224;27.976;2023-01-16T09:13:31;11.70;;;4.63;;
5965;SDS011;3009;43.224;27.976;2023-01-16T09:16:17;8.33;;;5.67;;
5965;SDS011;3009;43.224;27.976;2023-01-16T09:18:46;9.13;;;5.97;;
5965;SDS011;3009;43.224;27.976;2023-01-16T09:21:14;9.00;;;6.07;;
5965;SDS011;3009;43.224;27.976;2023-01-16T09:23:45;6.10;;;5.00;;
5965;SDS011;3009;43.224;27.976;2023-01-16T09:26:14;12.47;;;6.00;;
5965;SDS011;3009;43.224;27.976;2023-01-16T09:28:43;13.83;;;6.20;;
5965;SDS011;3009;43.224;27.976;2023-01-16T09:31:11;7.70;;;6.07;;
5965;SDS011;3009;43.224;27.976;2023-01-16T09:33:39;7.03;;;5.53;;
5965;SDS011;3009;43.224;27.976;2023-01-16T09:36:08;8.10;;;5.40;;
5965;SDS011;3009;43.224;27.976;2023-01-16T09:38:36;12.43;;;6.20;;
5965;SDS011;3009;43.224;27.976;2023-01-16T09:41:04;5.87;;;5.30;;
5965;SDS011;3009;43.224;27.976;2023-01-16T09:43:35;6.80;;;5.03;;
5965;SDS011;3009;43.224;27.976;2023-01-16T09:46:06;7.67;;;5.90;;
5965;SDS011;3009;43.224;27.976;2023-01-16T09:48:40;8.90;;;6.07;;
5965;SDS011;3009;43.224;27.976;2023-01-16T09:51:16;6.30;;;4.83;;
5965;SDS011;3009;43.224;27.976;2023-01-16T09:53:51;9.80;;;5.87;;
5965;SDS011;3009;43.224;27.976;2023-01-16T09:56:40;7.97;;;6.50;;
5965;SDS011;3009;43.224;27.976;2023-01-16T09:59:28;23.03;;;6.70;;
5965;SDS011;3009;43.224;27.976;2023-01-16T10:02:04;9.00;;;6.50;;
5965;SDS011;3009;43.224;27.976;2023-01-16T10:04:41;8.40;;;6.23;;
5965;SDS011;3009;43.224;27.976;2023-01-16T10:07:18;8.43;;;6.27;;
5965;SDS011;3009;43.224;27.976;2023-01-16T10:09:59;7.33;;;5.90;;
5965;SDS011;3009;43.224;27.976;2023-01-16T10:12:34;7.70;;;5.60;;
5965;SDS011;3009;43.224;27.976;2023-01-16T10:15:13;6.77;;;5.73;;
5965;SDS011;3009;43.224;27.976;2023-01-16T10:17:50;5.60;;;5.10;;
5965;SDS011;3009;43.224;27.976;2023-01-16T10:20:35;6.90;;;6.10;;
5965;SDS011;3009;43.224;27.976;2023-01-16T10:23:27;8.97;;;6.40;;
5965;SDS011;3009;43.224;27.976;2023-01-16T10:26:11;10.60;;;6.90;;
5965;SDS011;3009;43.224;27.976;2023-01-16T10:28:48;7.70;;;6.00;;
5965;SDS011;3009;43.224;27.976;2023-01-16T10:31:24;10.63;;;6.90;;
5965;SDS011;3009;43.224;27.976;2023-01-16T10:33:57;8.00;;;6.37;;
5965;SDS011;3009;43.224;27.976;2023-01-16T10:36:33;14.90;;;5.80;;
5965;SDS011;3009;43.224;27.976;2023-01-16T10:39:04;22.87;;;6.33;;
5965;SDS011;3009;43.224;27.976;2023-01-16T10:41:33;9.80;;;6.47;;
5965;SDS011;3009;43.224;27.976;2023-01-16T10:44:29;8.30;;;6.90;;
5965;SDS011;3009;43.224;27.976;2023-01-16T10:47:18;9.70;;;6.70;;
5965;SDS011;3009;43.224;27.976;2023-01-16T10:50:07;16.90;;;7.23;;
5965;SDS011;3009;43.224;27.976;2023-01-16T10:52:36;12.70;;;7.20;;
5965;SDS011;3009;43.224;27.976;2023-01-16T10:55:06;9.03;;;6.40;;
5965;SDS011;3009;43.224;27.976;2023-01-16T10:57:36;9.83;;;6.50;;
5965;SDS011;3009;43.224;27.976;2023-01-16T11:00:11;9.90;;;6.10;;
5965;SDS011;3009;43.224;27.976;2023-01-16T11:02:46;9.70;;;6.37;;
5965;SDS011;3009;43.224;27.976;2023-01-16T11:05:25;10.17;;;6.20;;
5965;SDS011;3009;43.224;27.976;2023-01-16T11:07:56;9.57;;;7.03;;
5965;SDS011;3009;43.224;27.976;2023-01-16T11:10:34;11.17;;;6.30;;
5965;SDS011;3009;43.224;27.976;2023-01-16T11:13:02;9.50;;;5.90;;
5965;SDS011;3009;43.224;27.976;2023-01-16T11:16:00;13.70;;;6.07;;
5965;SDS011;3009;43.224;27.976;2023-01-16T11:18:48;11.00;;;7.17;;
5965;SDS011;3009;43.224;27.976;2023-01-16T11:21:22;11.83;;;6.90;;
5965;SDS011;3009;43.224;27.976;2023-01-16T11:23:56;10.33;;;7.97;;
5965;SDS011;3009;43.224;27.976;2023-01-16T11:26:25;9.83;;;7.47;;
5965;SDS011;3009;43.224;27.976;2023-01-16T11:28:54;12.70;;;7.03;;
5965;SDS011;3009;43.224;27.976;2023-01-16T11:31:25;8.10;;;6.40;;
5965;SDS011;3009;43.224;27.976;2023-01-16T11:33:59;10.90;;;6.30;;
5965;SDS011;3009;43.224;27.976;2023-01-16T11:36:32;10.83;;;7.60;;
5965;SDS011;3009;43.224;27.976;2023-01-16T11:39:02;12.10;;;6.73;;
5965;SDS011;3009;43.224;27.976;2023-01-16T11:41:34;12.87;;;7.37;;
5965;SDS011;3009;43.224;27.976;2023-01-16T11:44:15;15.13;;;7.40;;
5965;SDS011;3009;43.224;27.976;2023-01-16T11:47:03;12.23;;;7.20;;
5965;SDS011;3009;43.224;27.976;2023-01-16T11:49:37;14.27;;;7.07;;
5965;SDS011;3009;43.224;27.976;2023-01-16T11:52:12;12.23;;;7.20;;
5965;SDS011;3009;43.224;27.976;2023-01-16T11:54:53;12.40;;;6.90;;
5965;SDS011;3009;43.224;27.976;2023-01-16T11:57:26;11.00;;;8.27;;
5965;SDS011;3009;43.224;27.976;2023-01-16T12:00:27;14.93;;;8.10;;
5965;SDS011;3009;43.224;27.976;2023-01-16T12:03:27;15.03;;;7.80;;
5965;SDS011;3009;43.224;27.976;2023-01-16T12:06:11;12.77;;;8.27;;
5965;SDS011;3009;43.224;27.976;2023-01-16T12:12:04;17.00;;;8.33;;
5965;SDS011;3009;43.224;27.976;2023-01-16T12:14:57;13.00;;;8.27;;
5965;SDS011;3009;43.224;27.976;2023-01-16T12:17:31;10.03;;;7.73;;
5965;SDS011;3009;43.224;27.976;2023-01-16T12:23:11;13.60;;;9.20;;
5965;SDS011;3009;43.224;27.976;2023-01-16T12:25:55;18.50;;;8.90;;
5965;SDS011;3009;43.224;27.976;2023-01-16T12:28:36;19.33;;;8.90;;
5965;SDS011;3009;43.224;27.976;2023-01-16T12:31:17;15.10;;;8.70;;
5965;SDS011;3009;43.224;27.976;2023-01-16T12:34:06;16.63;;;8.87;;
5965;SDS011;3009;43.224;27.976;2023-01-16T12:36:45;17.00;;;9.70;;
5965;SDS011;3009;43.224;27.976;2023-01-16T12:39:28;24.33;;;10.10;;
5965;SDS011;3009;43.224;27.976;2023-01-16T12:42:09;19.60;;;10.70;;
5965;SDS011;3009;43.224;27.976;2023-01-16T12:45:11;22.43;;;10.67;;
5965;SDS011;3009;43.224;27.976;2023-01-16T12:47:53;22.00;;;11.23;;
5965;SDS011;3009;43.224;27.976;2023-01-16T12:50:37;20.97;;;9.90;;
5965;SDS011;3009;43.224;27.976;2023-01-16T12:53:27;22.13;;;10.03;;
5965;SDS011;3009;43.224;27.976;2023-01-16T12:56:12;16.00;;;10.43;;
5965;SDS011;3009;43.224;27.976;2023-01-16T12:58:54;22.50;;;11.87;;
5965;SDS011;3009;43.224;27.976;2023-01-16T13:01:28;19.63;;;12.87;;
5965;SDS011;3009;43.224;27.976;2023-01-16T13:04:02;15.20;;;10.30;;
5965;SDS011;3009;43.224;27.976;2023-01-16T13:06:41;14.57;;;10.30;;
5965;SDS011;3009;43.224;27.976;2023-01-16T13:09:14;23.90;;;11.00;;
5965;SDS011;3009;43.224;27.976;2023-01-16T13:11:59;24.37;;;12.37;;
5965;SDS011;3009;43.224;27.976;2023-01-16T13:14:50;23.47;;;11.67;;
5965;SDS011;3009;43.224;27.976;2023-01-16T13:17:25;27.23;;;12.70;;
5965;SDS011;3009;43.224;27.976;2023-01-16T13:20:09;24.53;;;12.30;;
5965;SDS011;3009;43.224;27.976;2023-01-16T13:22:42;23.97;;;13.37;;
5965;SDS011;3009;43.224;27.976;2023-01-16T13:25:18;24.30;;;12.70;;
5965;SDS011;3009;43.224;27.976;2023-01-16T13:27:55;19.47;;;12.40;;
5965;SDS011;3009;43.224;27.976;2023-01-16T13:30:25;18.43;;;11.97;;
5965;SDS011;3009;43.224;27.976;2023-01-16T13:33:07;27.23;;;11.30;;
5965;SDS011;3009;43.224;27.976;2023-01-16T13:35:41;26.87;;;11.83;;
5965;SDS011;3009;43.224;27.976;2023-01-16T13:38:30;21.37;;;10.93;;
5965;SDS011;3009;43.224;27.976;2023-01-16T13:41:10;22.03;;;10.53;;
5965;SDS011;3009;43.224;27.976;2023-01-16T13:43:48;17.90;;;11.83;;
5965;SDS011;3009;43.224;27.976;2023-01-16T13:46:39;24.33;;;13.00;;
5965;SDS011;3009;43.224;27.976;2023-01-16T13:49:12;26.80;;;12.50;;
5965;SDS011;3009;43.224;27.976;2023-01-16T13:51:47;24.13;;;11.77;;
5965;SDS011;3009;43.224;27.976;2023-01-16T13:54:19;23.13;;;12.93;;
5965;SDS011;3009;43.224;27.976;2023-01-16T13:56:56;26.73;;;12.90;;
5965;SDS011;3009;43.224;27.976;2023-01-16T13:59:33;28.47;;;13.67;;
5965;SDS011;3009;43.224;27.976;2023-01-16T14:02:24;30.33;;;15.23;;
5965;SDS011;3009;43.224;27.976;2023-01-16T14:08:16;23.90;;;13.33;;
5965;SDS011;3009;43.224;27.976;2023-01-16T14:20:34;26.83;;;13.00;;
5965;SDS011;3009;43.224;27.976;2023-01-16T14:23:04;23.33;;;14.37;;
5965;SDS011;3009;43.224;27.976;2023-01-16T14:25:50;25.30;;;14.60;;
5965;SDS011;3009;43.224;27.976;2023-01-16T14:28:21;29.90;;;15.07;;
5965;SDS011;3009;43.224;27.976;2023-01-16T14:30:53;28.13;;;14.47;;
5965;SDS011;3009;43.224;27.976;2023-01-16T14:33:23;27.70;;;15.53;;
5965;SDS011;3009;43.224;27.976;2023-01-16T14:35:51;26.00;;;14.53;;
5965;SDS011;3009;43.224;27.976;2023-01-16T14:38:24;32.13;;;17.10;;
5965;SDS011;3009;43.224;27.976;2023-01-16T14:40:58;30.17;;;16.33;;
5965;SDS011;3009;43.224;27.976;2023-01-16T14:47:05;26.80;;;16.80;;
5965;SDS011;3009;43.224;27.976;2023-01-16T14:50:11;29.90;;;16.63;;
5965;SDS011;3009;43.224;27.976;2023-01-16T14:53:16;34.83;;;15.87;;
5965;SDS011;3009;43.224;27.976;2023-01-16T14:56:07;32.53;;;15.60;;
5965;SDS011;3009;43.224;27.976;2023-01-16T14:58:43;29.93;;;17.07;;
5965;SDS011;3009;43.224;27.976;2023-01-16T15:01:25;40.27;;;18.60;;
5965;SDS011;3009;43.224;27.976;2023-01-16T15:04:14;38.73;;;16.70;;
5965;SDS011;3009;43.224;27.976;2023-01-16T15:06:48;30.23;;;17.10;;
5965;SDS011;3009;43.224;27.976;2023-01-16T15:09:21;34.17;;;17.90;;
5965;SDS011;3009;43.224;27.976;2023-01-16T15:11:50;30.40;;;19.27;;
5965;SDS011;3009;43.224;27.976;2023-01-16T15:14:23;36.77;;;19.83;;
5965;SDS011;3009;43.224;27.976;2023-01-16T15:16:57;33.60;;;18.20;;
5965;SDS011;3009;43.224;27.976;2023-01-16T15:19:57;32.50;;;17.60;;
5965;SDS011;3009;43.224;27.976;2023-01-16T15:22:48;36.87;;;19.30;;
5965;SDS011;3009;43.224;27.976;2023-01-16T15:25:23;45.50;;;23.70;;
5965;SDS011;3009;43.224;27.976;2023-01-16T15:28:04;36.23;;;18.37;;
5965;SDS011;3009;43.224;27.976;2023-01-16T15:30:39;42.20;;;21.13;;
5965;SDS011;3009;43.224;27.976;2023-01-16T15:33:20;39.33;;;19.80;;
5965;SDS011;3009;43.224;27.976;2023-01-16T15:36:18;50.40;;;19.70;;
5965;SDS011;3009;43.224;27.976;2023-01-16T15:38:55;32.43;;;18.10;;
5965;SDS011;3009;43.224;27.976;2023-01-16T15:41:26;39.23;;;21.43;;
5965;SDS011;3009;43.224;27.976;2023-01-16T15:44:14;37.00;;;20.57;;
5965;SDS011;3009;43.224;27.976;2023-01-16T15:47:28;35.17;;;20.27;;
5965;SDS011;3009;43.224;27.976;2023-01-16T15:50:11;38.63;;;18.87;;
5965;SDS011;3009;43.224;27.976;2023-01-16T15:52:48;39.23;;;19.63;;
5965;SDS011;3009;43.224;27.976;2023-01-16T15:55:19;42.60;;;22.00;;
5965;SDS011;3009;43.224;27.976;2023-01-16T15:57:50;42.53;;;21.20;;
5965;SDS011;3009;43.224;27.976;2023-01-16T16:00:23;42.97;;;23.13;;
5965;SDS011;3009;43.224;27.976;2023-01-16T16:02:58;50.77;;;22.10;;
5965;SDS011;3009;43.224;27.976;2023-01-16T16:05:27;52.23;;;23.27;;